sensor_id;sensor_type;location;lat;lon;timestamp;P1;durP1;ratioP1;P2;durP2;ratioP2
73550;SDS011;61816;53.582;10.096;2022-10-16T00:01:40;12.18;;;7.00;;
73550;SDS011;61816;53.582;10.096;2022-10-16T00:04:06;13.18;;;8.23;;
73550;SDS011;61816;53.582;10.096;2022-10-16T00:06:31;17.67;;;6.88;;
73550;SDS011;61816;53.582;10.096;2022-10-16T00:08:57;19.38;;;6.65;;
73550;SDS011;61816;53.582;10.096;2022-10-16T00:11:27;13.60;;;6.03;;
73550;SDS011;61816;53.582;10.096;2022-10-16T00:13:57;13.20;;;6.20;;
73550;SDS011;61816;53.582;10.096;2022-10-16T00:16:24;14.88;;;5.60;;
73550;SDS011;61816;53.582;10.096;2022-10-16T00:18:50;14.60;;;5.50;;
73550;SDS011;61816;53.582;10.096;2022-10-16T00:21:20;11.10;;;4.70;;
73550;SDS011;61816;53.582;10.096;2022-10-16T00:26:20;7.15;;;4.53;;
73550;SDS011;61816;53.582;10.096;2022-10-16T00:28:50;8.85;;;4.20;;
73550;SDS011;61816;53.582;10.096;2022-10-16T00:31:16;8.90;;;3.10;;
73550;SDS011;61816;53.582;10.096;2022-10-16T00:33:43;14.85;;;3.85;;
73550;SDS011;61816;53.582;10.096;2022-10-16T00:36:10;11.02;;;3.22;;
73550;SDS011;61816;53.582;10.096;2022-10-16T00:38:38;13.63;;;3.33;;
73550;SDS011;61816;53.582;10.096;2022-10-16T00:41:04;6.55;;;3.45;;
73550;SDS011;61816;53.582;10.096;2022-10-16T00:46:04;10.88;;;2.88;;
73550;SDS011;61816;53.582;10.096;2022-10-16T00:48:36;7.47;;;2.13;;
73550;SDS011;61816;53.582;10.096;2022-10-16T00:51:02;8.75;;;2.63;;
73550;SDS011;61816;53.582;10.096;2022-10-16T00:53:30;9.23;;;2.92;;
73550;SDS011;61816;53.582;10.096;2022-10-16T00:55:56;12.02;;;4.85;;
73550;SDS011;61816;53.582;10.096;2022-10-16T00:58:21;9.20;;;5.88;;
73550;SDS011;61816;53.582;10.096;2022-10-16T01:00:47;9.10;;;6.20;;
73550;SDS011;61816;53.582;10.096;2022-10-16T01:03:26;10.77;;;6.88;;
73550;SDS011;61816;53.582;10.096;2022-10-16T01:11:28;14.45;;;7.63;;
73550;SDS011;61816;53.582;10.096;2022-10-16T01:14:06;13.13;;;7.05;;
73550;SDS011;61816;53.582;10.096;2022-10-16T01:17:00;12.68;;;7.30;;
73550;SDS011;61816;53.582;10.096;2022-10-16T01:19:39;15.13;;;7.90;;
73550;SDS011;61816;53.582;10.096;2022-10-16T01:22:19;12.05;;;7.90;;
73550;SDS011;61816;53.582;10.096;2022-10-16T01:24:50;13.15;;;8.07;;
73550;SDS011;61816;53.582;10.096;2022-10-16T01:27:21;14.85;;;7.88;;
73550;SDS011;61816;53.582;10.096;2022-10-16T01:29:53;15.20;;;7.28;;
73550;SDS011;61816;53.582;10.096;2022-10-16T01:32:40;13.15;;;7.80;;
73550;SDS011;61816;53.582;10.096;2022-10-16T01:40:10;11.75;;;5.13;;
73550;SDS011;61816;53.582;10.096;2022-10-16T01:42:39;12.73;;;4.35;;
73550;SDS011;61816;53.582;10.096;2022-10-16T01:45:09;6.13;;;4.00;;
73550;SDS011;61816;53.582;10.096;2022-10-16T01:47:38;6.15;;;3.13;;
73550;SDS011;61816;53.582;10.096;2022-10-16T01:50:05;9.10;;;3.25;;
73550;SDS011;61816;53.582;10.096;2022-10-16T01:52:34;13.15;;;4.30;;
73550;SDS011;61816;53.582;10.096;2022-10-16T01:55:03;11.07;;;3.40;;
73550;SDS011;61816;53.582;10.096;2022-10-16T01:57:31;11.00;;;3.45;;
73550;SDS011;61816;53.582;10.096;2022-10-16T02:00:01;11.45;;;3.22;;
73550;SDS011;61816;53.582;10.096;2022-10-16T02:02:31;10.93;;;3.30;;
73550;SDS011;61816;53.582;10.096;2022-10-16T02:04:58;14.20;;;3.05;;
73550;SDS011;61816;53.582;10.096;2022-10-16T02:07:29;13.32;;;3.03;;
73550;SDS011;61816;53.582;10.096;2022-10-16T02:09:55;8.05;;;2.78;;
73550;SDS011;61816;53.582;10.096;2022-10-16T02:14:54;7.20;;;3.13;;
73550;SDS011;61816;53.582;10.096;2022-10-16T02:17:20;15.65;;;3.40;;
73550;SDS011;61816;53.582;10.096;2022-10-16T02:19:47;9.15;;;2.75;;
73550;SDS011;61816;53.582;10.096;2022-10-16T02:22:21;10.30;;;3.05;;
73550;SDS011;61816;53.582;10.096;2022-10-16T02:30:11;8.90;;;2.50;;
73550;SDS011;61816;53.582;10.096;2022-10-16T02:32:53;13.85;;;3.13;;
73550;SDS011;61816;53.582;10.096;2022-10-16T02:35:20;10.68;;;3.00;;
73550;SDS011;61816;53.582;10.096;2022-10-16T02:37:48;12.82;;;3.40;;
73550;SDS011;61816;53.582;10.096;2022-10-16T02:40:15;11.20;;;3.58;;
73550;SDS011;61816;53.582;10.096;2022-10-16T02:42:42;8.38;;;3.45;;
73550;SDS011;61816;53.582;10.096;2022-10-16T02:45:08;10.30;;;3.50;;
73550;SDS011;61816;53.582;10.096;2022-10-16T02:47:35;8.15;;;4.03;;
73550;SDS011;61816;53.582;10.096;2022-10-16T02:50:01;9.05;;;3.67;;
73550;SDS011;61816;53.582;10.096;2022-10-16T02:52:26;9.52;;;3.20;;
73550;SDS011;61816;53.582;10.096;2022-10-16T02:54:52;10.60;;;3.75;;
73550;SDS011;61816;53.582;10.096;2022-10-16T02:57:17;10.45;;;4.18;;
73550;SDS011;61816;53.582;10.096;2022-10-16T02:59:44;9.75;;;3.83;;
73550;SDS011;61816;53.582;10.096;2022-10-16T03:02:09;5.97;;;3.63;;
73550;SDS011;61816;53.582;10.096;2022-10-16T03:04:35;12.82;;;4.15;;
73550;SDS011;61816;53.582;10.096;2022-10-16T03:07:00;8.60;;;3.80;;
73550;SDS011;61816;53.582;10.096;2022-10-16T03:09:26;16.02;;;4.35;;
73550;SDS011;61816;53.582;10.096;2022-10-16T03:11:51;13.95;;;3.95;;
73550;SDS011;61816;53.582;10.096;2022-10-16T03:14:17;11.05;;;4.45;;
73550;SDS011;61816;53.582;10.096;2022-10-16T03:16:42;10.88;;;3.97;;
73550;SDS011;61816;53.582;10.096;2022-10-16T03:19:08;13.80;;;3.78;;
73550;SDS011;61816;53.582;10.096;2022-10-16T03:21:33;17.30;;;3.97;;
73550;SDS011;61816;53.582;10.096;2022-10-16T03:23:59;8.90;;;3.65;;
73550;SDS011;61816;53.582;10.096;2022-10-16T03:26:24;11.52;;;4.57;;
73550;SDS011;61816;53.582;10.096;2022-10-16T03:28:49;15.32;;;3.53;;
73550;SDS011;61816;53.582;10.096;2022-10-16T03:31:15;8.50;;;3.60;;
73550;SDS011;61816;53.582;10.096;2022-10-16T03:33:40;10.07;;;3.75;;
73550;SDS011;61816;53.582;10.096;2022-10-16T03:36:06;10.18;;;4.05;;
73550;SDS011;61816;53.582;10.096;2022-10-16T03:38:31;8.65;;;3.58;;
73550;SDS011;61816;53.582;10.096;2022-10-16T03:40:57;6.22;;;3.22;;
73550;SDS011;61816;53.582;10.096;2022-10-16T03:43:22;10.95;;;3.70;;
73550;SDS011;61816;53.582;10.096;2022-10-16T03:45:49;7.95;;;3.08;;
73550;SDS011;61816;53.582;10.096;2022-10-16T03:48:15;7.50;;;3.05;;
73550;SDS011;61816;53.582;10.096;2022-10-16T03:50:41;8.15;;;2.78;;
73550;SDS011;61816;53.582;10.096;2022-10-16T03:53:06;30.23;;;3.58;;
73550;SDS011;61816;53.582;10.096;2022-10-16T03:55:31;10.70;;;3.40;;
73550;SDS011;61816;53.582;10.096;2022-10-16T03:57:57;9.35;;;3.20;;
73550;SDS011;61816;53.582;10.096;2022-10-16T04:00:22;6.13;;;3.40;;
73550;SDS011;61816;53.582;10.096;2022-10-16T04:02:47;16.02;;;3.17;;
73550;SDS011;61816;53.582;10.096;2022-10-16T04:05:13;14.63;;;3.33;;
73550;SDS011;61816;53.582;10.096;2022-10-16T04:07:38;9.68;;;2.95;;
73550;SDS011;61816;53.582;10.096;2022-10-16T04:10:04;12.95;;;2.63;;
73550;SDS011;61816;53.582;10.096;2022-10-16T04:12:29;14.77;;;3.20;;
73550;SDS011;61816;53.582;10.096;2022-10-16T04:14:55;14.00;;;3.58;;
73550;SDS011;61816;53.582;10.096;2022-10-16T04:17:20;9.65;;;2.85;;
73550;SDS011;61816;53.582;10.096;2022-10-16T04:19:45;8.85;;;3.03;;
73550;SDS011;61816;53.582;10.096;2022-10-16T04:22:11;7.57;;;3.42;;
73550;SDS011;61816;53.582;10.096;2022-10-16T04:24:36;13.63;;;2.90;;
73550;SDS011;61816;53.582;10.096;2022-10-16T04:27:01;12.75;;;3.00;;
73550;SDS011;61816;53.582;10.096;2022-10-16T04:29:27;11.25;;;3.25;;
73550;SDS011;61816;53.582;10.096;2022-10-16T04:31:53;7.57;;;2.55;;
73550;SDS011;61816;53.582;10.096;2022-10-16T04:34:18;23.67;;;3.20;;
73550;SDS011;61816;53.582;10.096;2022-10-16T04:36:43;6.72;;;2.42;;
73550;SDS011;61816;53.582;10.096;2022-10-16T04:39:09;4.78;;;2.65;;
73550;SDS011;61816;53.582;10.096;2022-10-16T04:41:34;8.10;;;2.90;;
73550;SDS011;61816;53.582;10.096;2022-10-16T04:43:59;10.38;;;3.17;;
73550;SDS011;61816;53.582;10.096;2022-10-16T04:46:25;8.90;;;2.50;;
73550;SDS011;61816;53.582;10.096;2022-10-16T04:48:50;8.52;;;2.72;;
73550;SDS011;61816;53.582;10.096;2022-10-16T04:51:16;12.65;;;2.60;;
73550;SDS011;61816;53.582;10.096;2022-10-16T04:53:41;11.48;;;2.72;;
73550;SDS011;61816;53.582;10.096;2022-10-16T04:56:06;9.45;;;2.55;;
73550;SDS011;61816;53.582;10.096;2022-10-16T04:58:32;13.90;;;2.70;;
73550;SDS011;61816;53.582;10.096;2022-10-16T05:00:58;11.85;;;2.80;;
73550;SDS011;61816;53.582;10.096;2022-10-16T05:03:23;7.38;;;2.78;;
73550;SDS011;61816;53.582;10.096;2022-10-16T05:05:48;15.77;;;3.03;;
73550;SDS011;61816;53.582;10.096;2022-10-16T05:08:14;14.88;;;3.00;;
73550;SDS011;61816;53.582;10.096;2022-10-16T05:10:41;11.85;;;3.08;;
73550;SDS011;61816;53.582;10.096;2022-10-16T05:13:08;11.10;;;3.63;;
73550;SDS011;61816;53.582;10.096;2022-10-16T05:15:33;9.93;;;2.70;;
73550;SDS011;61816;53.582;10.096;2022-10-16T05:17:59;11.50;;;2.70;;
73550;SDS011;61816;53.582;10.096;2022-10-16T05:20:24;12.88;;;3.17;;
73550;SDS011;61816;53.582;10.096;2022-10-16T05:22:49;8.77;;;3.17;;
73550;SDS011;61816;53.582;10.096;2022-10-16T05:25:15;10.57;;;3.40;;
73550;SDS011;61816;53.582;10.096;2022-10-16T05:27:41;18.38;;;3.35;;
73550;SDS011;61816;53.582;10.096;2022-10-16T05:30:06;14.80;;;4.03;;
73550;SDS011;61816;53.582;10.096;2022-10-16T05:32:32;12.50;;;3.28;;
73550;SDS011;61816;53.582;10.096;2022-10-16T05:34:58;12.02;;;2.88;;
73550;SDS011;61816;53.582;10.096;2022-10-16T05:37:25;14.93;;;3.75;;
73550;SDS011;61816;53.582;10.096;2022-10-16T05:39:52;10.98;;;3.55;;
73550;SDS011;61816;53.582;10.096;2022-10-16T05:42:17;15.80;;;3.53;;
73550;SDS011;61816;53.582;10.096;2022-10-16T05:44:43;14.68;;;3.50;;
73550;SDS011;61816;53.582;10.096;2022-10-16T05:47:08;17.17;;;3.45;;
73550;SDS011;61816;53.582;10.096;2022-10-16T05:49:34;21.50;;;3.75;;
73550;SDS011;61816;53.582;10.096;2022-10-16T05:51:59;13.02;;;3.55;;
73550;SDS011;61816;53.582;10.096;2022-10-16T05:54:24;11.70;;;3.75;;
73550;SDS011;61816;53.582;10.096;2022-10-16T05:56:50;13.10;;;3.92;;
73550;SDS011;61816;53.582;10.096;2022-10-16T05:59:15;12.30;;;3.70;;
73550;SDS011;61816;53.582;10.096;2022-10-16T06:01:41;15.57;;;3.88;;
73550;SDS011;61816;53.582;10.096;2022-10-16T06:04:07;12.05;;;3.42;;
73550;SDS011;61816;53.582;10.096;2022-10-16T06:06:33;19.73;;;3.88;;
73550;SDS011;61816;53.582;10.096;2022-10-16T06:09:01;13.52;;;3.63;;
73550;SDS011;61816;53.582;10.096;2022-10-16T06:11:27;9.70;;;3.17;;
73550;SDS011;61816;53.582;10.096;2022-10-16T06:13:55;10.18;;;3.17;;
73550;SDS011;61816;53.582;10.096;2022-10-16T06:16:22;11.45;;;2.90;;
73550;SDS011;61816;53.582;10.096;2022-10-16T06:18:50;13.85;;;3.53;;
73550;SDS011;61816;53.582;10.096;2022-10-16T06:21:17;10.45;;;3.17;;
73550;SDS011;61816;53.582;10.096;2022-10-16T06:23:44;10.20;;;3.70;;
73550;SDS011;61816;53.582;10.096;2022-10-16T06:26:16;7.60;;;3.38;;
73550;SDS011;61816;53.582;10.096;2022-10-16T06:28:45;12.52;;;3.38;;
73550;SDS011;61816;53.582;10.096;2022-10-16T06:31:12;9.80;;;3.33;;
73550;SDS011;61816;53.582;10.096;2022-10-16T06:33:38;10.05;;;3.33;;
73550;SDS011;61816;53.582;10.096;2022-10-16T06:36:06;16.15;;;3.85;;
73550;SDS011;61816;53.582;10.096;2022-10-16T06:38:33;11.32;;;3.90;;
73550;SDS011;61816;53.582;10.096;2022-10-16T06:40:58;8.85;;;3.42;;
73550;SDS011;61816;53.582;10.096;2022-10-16T06:43:24;8.57;;;3.83;;
73550;SDS011;61816;53.582;10.096;2022-10-16T06:45:51;13.93;;;4.15;;
73550;SDS011;61816;53.582;10.096;2022-10-16T06:48:20;14.52;;;2.95;;
73550;SDS011;61816;53.582;10.096;2022-10-16T06:53:40;9.48;;;3.60;;
73550;SDS011;61816;53.582;10.096;2022-10-16T06:58:38;17.27;;;3.83;;
73550;SDS011;61816;53.582;10.096;2022-10-16T07:01:04;11.20;;;3.90;;
73550;SDS011;61816;53.582;10.096;2022-10-16T07:03:30;16.75;;;4.63;;
73550;SDS011;61816;53.582;10.096;2022-10-16T07:05:55;14.60;;;3.60;;
73550;SDS011;61816;53.582;10.096;2022-10-16T07:08:21;10.70;;;3.50;;
73550;SDS011;61816;53.582;10.096;2022-10-16T07:10:47;8.82;;;3.47;;
73550;SDS011;61816;53.582;10.096;2022-10-16T07:13:12;10.75;;;4.00;;
73550;SDS011;61816;53.582;10.096;2022-10-16T07:15:39;9.23;;;4.47;;
73550;SDS011;61816;53.582;10.096;2022-10-16T07:18:05;12.25;;;4.78;;
73550;SDS011;61816;53.582;10.096;2022-10-16T07:20:31;8.07;;;4.57;;
73550;SDS011;61816;53.582;10.096;2022-10-16T07:22:56;14.38;;;5.32;;
73550;SDS011;61816;53.582;10.096;2022-10-16T07:25:22;9.70;;;3.63;;
73550;SDS011;61816;53.582;10.096;2022-10-16T07:27:47;11.52;;;4.30;;
73550;SDS011;61816;53.582;10.096;2022-10-16T07:30:12;8.45;;;4.43;;
73550;SDS011;61816;53.582;10.096;2022-10-16T07:32:38;8.07;;;3.90;;
73550;SDS011;61816;53.582;10.096;2022-10-16T07:35:03;12.52;;;4.45;;
73550;SDS011;61816;53.582;10.096;2022-10-16T07:37:30;9.30;;;4.10;;
73550;SDS011;61816;53.582;10.096;2022-10-16T07:39:55;14.13;;;4.43;;
73550;SDS011;61816;53.582;10.096;2022-10-16T07:42:20;8.27;;;3.67;;
73550;SDS011;61816;53.582;10.096;2022-10-16T07:44:46;5.80;;;4.07;;
73550;SDS011;61816;53.582;10.096;2022-10-16T07:47:11;13.23;;;3.20;;
73550;SDS011;61816;53.582;10.096;2022-10-16T07:49:37;9.80;;;3.00;;
73550;SDS011;61816;53.582;10.096;2022-10-16T07:52:02;9.05;;;3.42;;
73550;SDS011;61816;53.582;10.096;2022-10-16T07:54:27;9.77;;;3.30;;
73550;SDS011;61816;53.582;10.096;2022-10-16T07:56:53;11.82;;;3.33;;
73550;SDS011;61816;53.582;10.096;2022-10-16T07:59:19;11.75;;;3.35;;
73550;SDS011;61816;53.582;10.096;2022-10-16T08:01:44;9.23;;;3.08;;
73550;SDS011;61816;53.582;10.096;2022-10-16T08:04:10;18.08;;;3.50;;
73550;SDS011;61816;53.582;10.096;2022-10-16T08:06:37;6.93;;;3.03;;
73550;SDS011;61816;53.582;10.096;2022-10-16T08:09:03;9.40;;;2.92;;
73550;SDS011;61816;53.582;10.096;2022-10-16T08:11:29;10.32;;;3.42;;
73550;SDS011;61816;53.582;10.096;2022-10-16T08:13:54;15.70;;;3.63;;
73550;SDS011;61816;53.582;10.096;2022-10-16T08:16:20;10.15;;;3.50;;
73550;SDS011;61816;53.582;10.096;2022-10-16T08:18:45;5.55;;;3.00;;
73550;SDS011;61816;53.582;10.096;2022-10-16T08:21:15;9.32;;;3.40;;
73550;SDS011;61816;53.582;10.096;2022-10-16T08:23:42;7.28;;;2.95;;
73550;SDS011;61816;53.582;10.096;2022-10-16T08:26:09;9.50;;;2.70;;
73550;SDS011;61816;53.582;10.096;2022-10-16T08:28:35;7.28;;;2.70;;
73550;SDS011;61816;53.582;10.096;2022-10-16T08:33:36;7.20;;;3.63;;
73550;SDS011;61816;53.582;10.096;2022-10-16T08:36:03;6.40;;;2.38;;
73550;SDS011;61816;53.582;10.096;2022-10-16T08:38:30;10.13;;;2.88;;
73550;SDS011;61816;53.582;10.096;2022-10-16T08:41:02;10.88;;;2.30;;
73550;SDS011;61816;53.582;10.096;2022-10-16T08:46:41;10.82;;;2.78;;
73550;SDS011;61816;53.582;10.096;2022-10-16T08:49:09;8.85;;;2.42;;
73550;SDS011;61816;53.582;10.096;2022-10-16T08:51:38;5.03;;;1.98;;
73550;SDS011;61816;53.582;10.096;2022-10-16T08:54:06;6.10;;;2.63;;
73550;SDS011;61816;53.582;10.096;2022-10-16T08:56:43;10.90;;;2.22;;
73550;SDS011;61816;53.582;10.096;2022-10-16T08:59:12;10.40;;;2.13;;
73550;SDS011;61816;53.582;10.096;2022-10-16T09:01:40;11.18;;;2.40;;
73550;SDS011;61816;53.582;10.096;2022-10-16T09:07:15;7.00;;;2.20;;
73550;SDS011;61816;53.582;10.096;2022-10-16T09:10:03;7.32;;;2.50;;
73550;SDS011;61816;53.582;10.096;2022-10-16T09:12:52;8.13;;;2.28;;
73550;SDS011;61816;53.582;10.096;2022-10-16T09:15:39;4.13;;;2.13;;
73550;SDS011;61816;53.582;10.096;2022-10-16T09:18:54;4.45;;;1.85;;
73550;SDS011;61816;53.582;10.096;2022-10-16T09:21:28;5.50;;;2.35;;
73550;SDS011;61816;53.582;10.096;2022-10-16T09:23:57;7.20;;;2.25;;
73550;SDS011;61816;53.582;10.096;2022-10-16T09:26:25;14.60;;;2.55;;
73550;SDS011;61816;53.582;10.096;2022-10-16T09:28:51;9.13;;;2.30;;
73550;SDS011;61816;53.582;10.096;2022-10-16T09:31:19;6.68;;;1.92;;
73550;SDS011;61816;53.582;10.096;2022-10-16T09:33:47;5.15;;;1.92;;
73550;SDS011;61816;53.582;10.096;2022-10-16T09:36:17;19.88;;;2.80;;
73550;SDS011;61816;53.582;10.096;2022-10-16T09:38:45;10.27;;;1.77;;
73550;SDS011;61816;53.582;10.096;2022-10-16T09:46:24;5.35;;;1.90;;
73550;SDS011;61816;53.582;10.096;2022-10-16T09:48:56;4.68;;;1.55;;
73550;SDS011;61816;53.582;10.096;2022-10-16T09:51:27;5.95;;;2.03;;
73550;SDS011;61816;53.582;10.096;2022-10-16T09:54:02;12.88;;;1.95;;
73550;SDS011;61816;53.582;10.096;2022-10-16T09:56:38;9.30;;;1.92;;
73550;SDS011;61816;53.582;10.096;2022-10-16T09:59:14;6.90;;;1.50;;
73550;SDS011;61816;53.582;10.096;2022-10-16T10:01:45;3.38;;;1.65;;
73550;SDS011;61816;53.582;10.096;2022-10-16T10:04:13;15.82;;;2.10;;
73550;SDS011;61816;53.582;10.096;2022-10-16T10:09:22;7.50;;;1.98;;
73550;SDS011;61816;53.582;10.096;2022-10-16T10:11:57;8.07;;;1.83;;
73550;SDS011;61816;53.582;10.096;2022-10-16T10:19:29;8.55;;;2.25;;
73550;SDS011;61816;53.582;10.096;2022-10-16T10:21:54;13.07;;;2.53;;
73550;SDS011;61816;53.582;10.096;2022-10-16T10:24:20;10.38;;;2.33;;
73550;SDS011;61816;53.582;10.096;2022-10-16T10:29:28;17.13;;;3.10;;
73550;SDS011;61816;53.582;10.096;2022-10-16T10:37:24;8.52;;;1.98;;
73550;SDS011;61816;53.582;10.096;2022-10-16T10:40:22;9.65;;;2.28;;
73550;SDS011;61816;53.582;10.096;2022-10-16T10:43:06;6.60;;;1.90;;
73550;SDS011;61816;53.582;10.096;2022-10-16T10:45:48;13.07;;;1.85;;
73550;SDS011;61816;53.582;10.096;2022-10-16T10:48:22;11.75;;;2.33;;
73550;SDS011;61816;53.582;10.096;2022-10-16T10:50:56;9.45;;;1.88;;
73550;SDS011;61816;53.582;10.096;2022-10-16T10:53:36;7.80;;;1.77;;
73550;SDS011;61816;53.582;10.096;2022-10-16T10:56:30;6.35;;;1.45;;
73550;SDS011;61816;53.582;10.096;2022-10-16T10:58:57;5.47;;;1.80;;
73550;SDS011;61816;53.582;10.096;2022-10-16T11:01:49;7.95;;;1.60;;
73550;SDS011;61816;53.582;10.096;2022-10-16T11:07:17;11.23;;;2.13;;
73550;SDS011;61816;53.582;10.096;2022-10-16T11:09:51;7.40;;;1.48;;
73550;SDS011;61816;53.582;10.096;2022-10-16T11:20:49;11.23;;;1.77;;
73550;SDS011;61816;53.582;10.096;2022-10-16T11:23:33;6.25;;;1.52;;
73550;SDS011;61816;53.582;10.096;2022-10-16T11:26:16;10.05;;;1.58;;
73550;SDS011;61816;53.582;10.096;2022-10-16T11:28:50;6.90;;;1.55;;
73550;SDS011;61816;53.582;10.096;2022-10-16T11:36:49;9.23;;;1.80;;
73550;SDS011;61816;53.582;10.096;2022-10-16T11:39:25;5.75;;;1.73;;
73550;SDS011;61816;53.582;10.096;2022-10-16T11:41:53;8.20;;;1.67;;
73550;SDS011;61816;53.582;10.096;2022-10-16T11:50:06;8.18;;;1.60;;
73550;SDS011;61816;53.582;10.096;2022-10-16T11:52:53;13.45;;;2.22;;
73550;SDS011;61816;53.582;10.096;2022-10-16T11:55:28;3.85;;;1.55;;
73550;SDS011;61816;53.582;10.096;2022-10-16T11:58:04;11.35;;;1.85;;
73550;SDS011;61816;53.582;10.096;2022-10-16T12:06:14;7.78;;;2.15;;
73550;SDS011;61816;53.582;10.096;2022-10-16T12:08:44;8.90;;;1.92;;
73550;SDS011;61816;53.582;10.096;2022-10-16T12:16:38;8.90;;;1.95;;
73550;SDS011;61816;53.582;10.096;2022-10-16T12:19:15;11.63;;;1.98;;
73550;SDS011;61816;53.582;10.096;2022-10-16T12:21:42;9.18;;;2.00;;
73550;SDS011;61816;53.582;10.096;2022-10-16T12:24:27;8.00;;;2.22;;
73550;SDS011;61816;53.582;10.096;2022-10-16T12:26:57;6.70;;;1.70;;
73550;SDS011;61816;53.582;10.096;2022-10-16T12:29:26;9.43;;;1.60;;
73550;SDS011;61816;53.582;10.096;2022-10-16T12:31:57;14.48;;;2.33;;
73550;SDS011;61816;53.582;10.096;2022-10-16T12:34:35;7.40;;;1.90;;
73550;SDS011;61816;53.582;10.096;2022-10-16T12:37:23;11.48;;;2.10;;
73550;SDS011;61816;53.582;10.096;2022-10-16T12:39:51;11.55;;;2.08;;
73550;SDS011;61816;53.582;10.096;2022-10-16T12:42:21;9.10;;;2.10;;
73550;SDS011;61816;53.582;10.096;2022-10-16T12:44:58;13.95;;;1.98;;
73550;SDS011;61816;53.582;10.096;2022-10-16T12:49:56;10.57;;;2.70;;
73550;SDS011;61816;53.582;10.096;2022-10-16T12:55:02;17.02;;;2.58;;
73550;SDS011;61816;53.582;10.096;2022-10-16T12:57:38;9.30;;;1.90;;
73550;SDS011;61816;53.582;10.096;2022-10-16T13:00:40;6.68;;;1.80;;
73550;SDS011;61816;53.582;10.096;2022-10-16T13:03:22;10.70;;;1.75;;
73550;SDS011;61816;53.582;10.096;2022-10-16T13:06:22;7.40;;;1.95;;
73550;SDS011;61816;53.582;10.096;2022-10-16T13:20:31;7.00;;;1.63;;
73550;SDS011;61816;53.582;10.096;2022-10-16T13:26:18;6.22;;;1.85;;
73550;SDS011;61816;53.582;10.096;2022-10-16T13:31:13;6.50;;;2.05;;
73550;SDS011;61816;53.582;10.096;2022-10-16T13:33:45;9.25;;;1.92;;
73550;SDS011;61816;53.582;10.096;2022-10-16T13:36:23;11.07;;;2.03;;
73550;SDS011;61816;53.582;10.096;2022-10-16T13:39:14;8.57;;;1.90;;
73550;SDS011;61816;53.582;10.096;2022-10-16T13:41:46;8.45;;;2.17;;
73550;SDS011;61816;53.582;10.096;2022-10-16T13:44:37;10.05;;;1.67;;
73550;SDS011;61816;53.582;10.096;2022-10-16T13:47:12;10.35;;;2.20;;
73550;SDS011;61816;53.582;10.096;2022-10-16T13:49:42;8.75;;;2.00;;
73550;SDS011;61816;53.582;10.096;2022-10-16T13:52:15;13.63;;;2.42;;
73550;SDS011;61816;53.582;10.096;2022-10-16T13:54:43;12.05;;;1.95;;
73550;SDS011;61816;53.582;10.096;2022-10-16T13:57:12;5.63;;;1.83;;
73550;SDS011;61816;53.582;10.096;2022-10-16T13:59:39;12.60;;;1.95;;
73550;SDS011;61816;53.582;10.096;2022-10-16T14:02:49;8.82;;;2.45;;
73550;SDS011;61816;53.582;10.096;2022-10-16T14:05:02;11.20;;;2.08;;
73550;SDS011;61816;53.582;10.096;2022-10-16T14:07:30;6.95;;;1.98;;
73550;SDS011;61816;53.582;10.096;2022-10-16T14:10:05;9.10;;;1.85;;
73550;SDS011;61816;53.582;10.096;2022-10-16T14:12:43;6.40;;;1.85;;
73550;SDS011;61816;53.582;10.096;2022-10-16T14:15:15;8.70;;;2.47;;
73550;SDS011;61816;53.582;10.096;2022-10-16T14:17:43;7.97;;;2.33;;
73550;SDS011;61816;53.582;10.096;2022-10-16T14:20:14;13.77;;;2.25;;
73550;SDS011;61816;53.582;10.096;2022-10-16T14:22:41;8.20;;;1.80;;
73550;SDS011;61816;53.582;10.096;2022-10-16T14:28:14;7.43;;;1.83;;
73550;SDS011;61816;53.582;10.096;2022-10-16T14:30:53;9.20;;;1.90;;
73550;SDS011;61816;53.582;10.096;2022-10-16T14:35:59;8.20;;;2.33;;
73550;SDS011;61816;53.582;10.096;2022-10-16T14:38:25;9.40;;;2.05;;
73550;SDS011;61816;53.582;10.096;2022-10-16T14:40:51;12.82;;;2.13;;
73550;SDS011;61816;53.582;10.096;2022-10-16T14:43:26;10.32;;;2.40;;
73550;SDS011;61816;53.582;10.096;2022-10-16T14:45:56;11.45;;;1.60;;
73550;SDS011;61816;53.582;10.096;2022-10-16T14:48:22;14.93;;;2.72;;
73550;SDS011;61816;53.582;10.096;2022-10-16T14:50:49;8.73;;;1.60;;
73550;SDS011;61816;53.582;10.096;2022-10-16T14:53:15;11.23;;;2.45;;
73550;SDS011;61816;53.582;10.096;2022-10-16T14:55:41;9.43;;;1.90;;
73550;SDS011;61816;53.582;10.096;2022-10-16T14:58:15;11.02;;;1.80;;
73550;SDS011;61816;53.582;10.096;2022-10-16T15:00:43;11.88;;;1.77;;
73550;SDS011;61816;53.582;10.096;2022-10-16T15:03:08;8.13;;;2.03;;
73550;SDS011;61816;53.582;10.096;2022-10-16T15:05:34;10.07;;;2.58;;
73550;SDS011;61816;53.582;10.096;2022-10-16T15:07:59;8.23;;;2.42;;
73550;SDS011;61816;53.582;10.096;2022-10-16T15:10:25;11.13;;;2.60;;
73550;SDS011;61816;53.582;10.096;2022-10-16T15:12:53;14.45;;;2.33;;
73550;SDS011;61816;53.582;10.096;2022-10-16T15:15:34;11.52;;;2.42;;
73550;SDS011;61816;53.582;10.096;2022-10-16T15:18:10;10.07;;;2.20;;
73550;SDS011;61816;53.582;10.096;2022-10-16T15:20:36;7.78;;;1.60;;
73550;SDS011;61816;53.582;10.096;2022-10-16T15:23:10;7.13;;;1.80;;
73550;SDS011;61816;53.582;10.096;2022-10-16T15:25:41;7.55;;;2.00;;
73550;SDS011;61816;53.582;10.096;2022-10-16T15:28:08;8.43;;;2.33;;
73550;SDS011;61816;53.582;10.096;2022-10-16T15:30:35;9.32;;;2.60;;
73550;SDS011;61816;53.582;10.096;2022-10-16T15:33:01;12.88;;;3.33;;
73550;SDS011;61816;53.582;10.096;2022-10-16T15:35:27;11.30;;;2.63;;
73550;SDS011;61816;53.582;10.096;2022-10-16T15:37:52;21.40;;;3.28;;
73550;SDS011;61816;53.582;10.096;2022-10-16T15:40:18;16.17;;;3.47;;
73550;SDS011;61816;53.582;10.096;2022-10-16T15:42:44;10.57;;;2.20;;
73550;SDS011;61816;53.582;10.096;2022-10-16T15:45:11;22.38;;;3.75;;
73550;SDS011;61816;53.582;10.096;2022-10-16T15:47:37;11.02;;;2.30;;
73550;SDS011;61816;53.582;10.096;2022-10-16T15:50:04;7.63;;;2.17;;
73550;SDS011;61816;53.582;10.096;2022-10-16T15:52:30;13.27;;;1.77;;
73550;SDS011;61816;53.582;10.096;2022-10-16T15:54:57;13.73;;;2.47;;
73550;SDS011;61816;53.582;10.096;2022-10-16T15:57:23;8.10;;;2.03;;
73550;SDS011;61816;53.582;10.096;2022-10-16T15:59:49;12.65;;;2.33;;
73550;SDS011;61816;53.582;10.096;2022-10-16T16:02:15;6.05;;;1.77;;
73550;SDS011;61816;53.582;10.096;2022-10-16T16:04:40;10.38;;;2.00;;
73550;SDS011;61816;53.582;10.096;2022-10-16T16:07:06;7.55;;;2.20;;
73550;SDS011;61816;53.582;10.096;2022-10-16T16:09:34;18.17;;;3.47;;
73550;SDS011;61816;53.582;10.096;2022-10-16T16:12:00;13.20;;;2.10;;
73550;SDS011;61816;53.582;10.096;2022-10-16T16:14:26;14.05;;;2.85;;
73550;SDS011;61816;53.582;10.096;2022-10-16T16:16:55;13.15;;;2.95;;
73550;SDS011;61816;53.582;10.096;2022-10-16T16:19:21;13.43;;;3.45;;
73550;SDS011;61816;53.582;10.096;2022-10-16T16:21:47;11.63;;;3.40;;
73550;SDS011;61816;53.582;10.096;2022-10-16T16:24:13;8.63;;;2.90;;
73550;SDS011;61816;53.582;10.096;2022-10-16T16:26:38;16.20;;;2.90;;
73550;SDS011;61816;53.582;10.096;2022-10-16T16:29:08;9.23;;;2.75;;
73550;SDS011;61816;53.582;10.096;2022-10-16T16:31:38;15.20;;;3.35;;
73550;SDS011;61816;53.582;10.096;2022-10-16T16:34:05;10.73;;;3.25;;
73550;SDS011;61816;53.582;10.096;2022-10-16T16:36:30;15.25;;;3.10;;
73550;SDS011;61816;53.582;10.096;2022-10-16T16:38:57;18.55;;;3.95;;
73550;SDS011;61816;53.582;10.096;2022-10-16T16:41:23;12.50;;;4.00;;